This is the latest recevied weather packets stored in our database for station/object K0QJ. If no packets are shown the sender has not sent any weather packets the latest 10 day(s).
| Time | Temp. | Humidity | Pressure | Rain* | Wind** | Luminosity | Snow |
|---|---|---|---|---|---|---|---|
| 1778176429 | 17.78° C | 53% | 1013.5 hPa | 0 mm | - | 183 W/m² | - |
| 1778176127 | 17.22° C | 55% | 1013.6 hPa | 0 mm | - | 259 W/m² | - |
| 1778175824 | 16.67° C | 56% | 1013.5 hPa | 0 mm | - | 142 W/m² | - |
| 1778175521 | 17.78° C | 54% | 1013.7 hPa | 0 mm | - | 182 W/m² | - |
| 1778175218 | 17.22° C | 54% | 1013.9 hPa | 0 mm | - | 948 W/m² | - |
| 1778174914 | 17.22° C | 56% | 1013.8 hPa | 0 mm | - | 990 W/m² | - |
| 1778174611 | 16.67° C | 55% | 1013.9 hPa | 0 mm | - | 970 W/m² | - |
| 1778174307 | 17.78° C | 54% | 1014.1 hPa | 0 mm | - | 201 W/m² | - |
| 1778174005 | 17.22° C | 56% | 1014 hPa | 0 mm | - | 1018 W/m² | - |
| 1778173701 | 17.78° C | 54% | 1014.1 hPa | 0 mm | - | 201 W/m² | - |
| 1778173398 | 16.67° C | 56% | 1014.2 hPa | 0 mm | - | 848 W/m² | - |
| 1778173094 | 16.67° C | 55% | 1014.1 hPa | 0 mm | - | 158 W/m² | - |
| 1778172790 | 16.67° C | 56% | 1014.3 hPa | 0 mm | - | 171 W/m² | - |
| 1778172486 | 16.67° C | 58% | 1014.6 hPa | 0 mm | - | 169 W/m² | - |
| 1778172183 | 16.67° C | 57% | 1014.3 hPa | 0 mm | - | 210 W/m² | - |
| 1778171880 | 16.67° C | 57% | 1014.4 hPa | 0 mm | - | 857 W/m² | - |
| 1778171578 | 16.67° C | 55% | 1014.7 hPa | 0 mm | - | 262 W/m² | - |
| 1778171273 | 16.67° C | 57% | 1014.6 hPa | 0 mm | - | 833 W/m² | - |
| 1778170970 | 17.22° C | 56% | 1014.7 hPa | 0 mm | - | 172 W/m² | - |
| 1778170667 | 16.67° C | 56% | 1014.7 hPa | 0 mm | - | 236 W/m² | - |
| 1778170363 | 16.67° C | 55% | 1014.8 hPa | 0 mm | - | 916 W/m² | - |
| 1778170059 | 17.78° C | 54% | 1014.6 hPa | 0 mm | - | 826 W/m² | - |
| 1778169756 | 16.67° C | 58% | 1014.7 hPa | 0 mm | - | 766 W/m² | - |
| 1778169452 | 17.22° C | 57% | 1014.8 hPa | 0 mm | - | 745 W/m² | - |
| 1778169148 | 17.22° C | 57% | 1014.5 hPa | 0 mm | - | 735 W/m² | - |
* Rain latest hour (hover to see other rain measurements)
** Current wind speed in m/s (hover to see current wind gust speed)